createdAt,value
2024-03-26T00:00:37.122Z,70.32
2024-03-26T00:01:39.336Z,70.73
2024-03-26T00:02:37.090Z,70.84
2024-03-26T00:03:37.076Z,70.53
2024-03-26T00:04:37.087Z,70.63
2024-03-26T00:05:37.081Z,70.32
2024-03-26T00:06:37.039Z,70.11
2024-03-26T00:07:37.059Z,70.53
2024-03-26T00:08:37.033Z,70.73
2024-03-26T00:09:37.015Z,71.46
2024-03-26T00:10:37.001Z,71.46
2024-03-26T00:11:37.002Z,70.84
2024-03-26T00:12:36.989Z,71.15
2024-03-26T00:13:36.991Z,72.08
2024-03-26T00:14:37.003Z,72.11
2024-03-26T00:15:36.950Z,71.08
2024-03-26T00:16:36.942Z,70.87
2024-03-26T00:17:36.942Z,71.18
2024-03-26T00:18:36.994Z,71.70
2024-03-26T00:19:36.920Z,73.36
2024-03-26T00:20:36.966Z,73.57
2024-03-26T00:21:36.892Z,73.88
2024-03-26T00:22:36.897Z,72.74
2024-03-26T00:23:36.870Z,73.46
2024-03-26T00:24:36.892Z,74.19
2024-03-26T00:25:36.932Z,73.08
2024-03-26T00:26:36.851Z,73.28
2024-03-26T00:27:36.841Z,73.28
2024-03-26T00:28:36.860Z,73.18
2024-03-26T00:29:36.843Z,72.98
2024-03-26T00:30:36.823Z,74.32
2024-03-26T00:31:36.801Z,73.80
2024-03-26T00:32:36.799Z,75.15
2024-03-26T00:33:36.786Z,75.67
2024-03-26T00:34:36.822Z,75.40
2024-03-26T00:35:36.767Z,76.23
2024-03-26T00:36:36.777Z,75.92
2024-03-26T00:37:36.781Z,75.09
2024-03-26T00:38:36.743Z,74.98
2024-03-26T00:39:36.830Z,75.81
2024-03-26T00:40:36.777Z,75.81
2024-03-26T00:41:36.716Z,75.29
2024-03-26T00:42:36.704Z,75.19
2024-03-26T00:43:36.706Z,75.60
2024-03-26T00:44:36.697Z,74.88
2024-03-26T00:45:36.693Z,74.67
2024-03-26T00:46:36.703Z,75.19
2024-03-26T00:47:36.669Z,74.46
2024-03-26T00:48:36.636Z,74.46
2024-03-26T00:49:36.636Z,74.46
2024-03-26T00:50:36.632Z,74.88
2024-03-26T00:51:36.652Z,75.09
2024-03-26T00:52:36.586Z,74.57
2024-03-26T00:53:36.677Z,74.26
2024-03-26T00:54:36.606Z,74.15
2024-03-26T00:55:36.570Z,73.63
2024-03-26T00:56:36.589Z,73.43
2024-03-26T00:57:36.600Z,73.63
2024-03-26T00:58:36.554Z,74.15
2024-03-26T00:59:36.555Z,74.67
2024-03-26T01:00:36.542Z,74.57
2024-03-26T01:01:36.531Z,74.67
2024-03-26T01:02:36.658Z,74.53
2024-03-26T01:03:36.504Z,75.19
2024-03-26T01:04:36.493Z,75.09
2024-03-26T01:05:36.500Z,74.67
2024-03-26T01:06:36.492Z,74.88
2024-03-26T01:07:36.457Z,75.60
2024-03-26T01:08:36.483Z,75.19
2024-03-26T01:09:36.480Z,75.19
2024-03-26T01:10:36.414Z,75.40
2024-03-26T01:11:36.419Z,75.09
2024-03-26T01:12:36.397Z,74.88
2024-03-26T01:13:36.419Z,75.19
2024-03-26T01:14:36.372Z,74.71
2024-03-26T01:15:36.395Z,74.46
2024-03-26T01:16:36.362Z,74.88
2024-03-26T01:17:36.365Z,75.09
2024-03-26T01:18:36.363Z,75.29
2024-03-26T01:30:00.054Z,74.71
2024-03-26T01:31:02.108Z,74.71
2024-03-26T01:32:11.307Z,74.57
2024-03-26T01:33:01.067Z,74.60
2024-03-26T01:34:01.046Z,74.77
2024-03-26T01:35:01.994Z,74.81
2024-03-26T01:36:01.042Z,74.50
2024-03-26T01:37:01.054Z,75.43
2024-03-26T01:38:01.024Z,75.60
2024-03-26T01:39:01.050Z,75.33
2024-03-26T01:40:00.935Z,75.33
2024-03-26T01:41:01.031Z,75.85
2024-03-26T01:42:00.919Z,75.98
2024-03-26T01:43:00.946Z,76.92
2024-03-26T01:44:01.019Z,75.98
2024-03-26T01:45:00.915Z,75.98
2024-03-26T01:46:00.943Z,77.23
2024-03-26T01:47:00.919Z,76.19
2024-03-26T01:48:00.871Z,76.40
2024-03-26T01:49:00.851Z,75.78
2024-03-26T01:50:00.849Z,75.98
2024-03-26T01:51:00.839Z,75.78
2024-03-26T01:52:00.847Z,75.67
2024-03-26T01:53:00.812Z,75.88
2024-03-26T01:54:00.871Z,75.67
2024-03-26T01:55:00.788Z,75.78
2024-03-26T01:56:00.786Z,75.88
2024-03-26T01:57:00.772Z,76.40
2024-03-26T01:58:00.809Z,76.40
2024-03-26T01:59:00.779Z,76.75
2024-03-26T02:00:00.780Z,76.71
2024-03-26T02:01:00.757Z,76.54
2024-03-26T02:02:00.730Z,76.23
2024-03-26T02:03:00.707Z,76.50
2024-03-26T02:04:00.747Z,76.92
2024-03-26T02:05:00.721Z,76.33
2024-03-26T02:06:00.685Z,76.75
2024-03-26T02:07:00.731Z,77.26
2024-03-26T02:08:00.673Z,76.64
2024-03-26T02:09:00.727Z,76.54
2024-03-26T02:10:00.684Z,77.16
2024-03-26T02:11:00.663Z,77.47
2024-03-26T02:12:00.647Z,77.47
2024-03-26T02:13:00.666Z,77.68
2024-03-26T02:14:00.644Z,77.06
2024-03-26T02:15:00.704Z,77.20
2024-03-26T02:16:00.622Z,77.09
2024-03-26T02:17:00.588Z,77.61
2024-03-26T02:18:00.622Z,77.09
2024-03-26T02:19:00.567Z,77.16
2024-03-26T02:20:00.564Z,77.68
2024-03-26T02:21:00.628Z,76.75
2024-03-26T02:22:00.527Z,77.06
2024-03-26T02:23:00.502Z,77.06
2024-03-26T02:24:00.529Z,76.64
2024-03-26T02:25:00.514Z,77.37
2024-03-26T02:26:00.538Z,77.68
2024-03-26T02:27:00.496Z,76.43
2024-03-26T02:28:00.508Z,77.47
2024-03-26T02:29:00.542Z,78.30
2024-03-26T02:30:00.450Z,78.20
2024-03-26T02:31:00.479Z,77.51
2024-03-26T02:32:00.476Z,76.75
2024-03-26T02:33:00.451Z,76.43
2024-03-26T02:34:00.429Z,76.95
2024-03-26T02:35:00.421Z,76.78
2024-03-26T02:36:00.461Z,76.78
2024-03-26T02:37:00.411Z,76.47
2024-03-26T02:38:00.418Z,76.37
2024-03-26T02:39:00.420Z,76.37
2024-03-26T02:40:00.431Z,76.47
2024-03-26T02:41:00.384Z,76.57
2024-03-26T02:42:00.365Z,76.68
2024-03-26T02:43:00.365Z,77.30
2024-03-26T02:44:00.303Z,76.99
2024-03-26T02:45:00.317Z,77.40
2024-03-26T02:46:00.300Z,76.47
2024-03-26T02:47:00.310Z,76.47
2024-03-26T02:48:00.269Z,76.68
2024-03-26T02:49:00.273Z,77.51
2024-03-26T02:50:00.260Z,76.26
2024-03-26T02:51:00.262Z,76.16
2024-03-26T02:52:00.238Z,76.12
2024-03-26T02:53:00.244Z,75.81
2024-03-26T02:54:00.206Z,75.60
2024-03-26T02:55:00.218Z,75.81
2024-03-26T02:56:00.196Z,75.95
2024-03-26T02:57:00.191Z,76.02
2024-03-26T02:58:00.188Z,76.54
2024-03-26T02:59:00.175Z,76.57
2024-03-26T03:00:00.222Z,76.57
2024-03-26T03:01:00.169Z,76.68
2024-03-26T03:02:00.135Z,76.89
2024-03-26T03:03:00.120Z,76.99
2024-03-26T03:04:00.147Z,77.09
2024-03-26T03:05:00.158Z,76.37
2024-03-26T03:06:00.153Z,75.95
2024-03-26T03:07:00.122Z,76.57
2024-03-26T03:08:00.081Z,76.89
2024-03-26T03:09:00.157Z,76.78
2024-03-26T03:10:00.045Z,77.40
2024-03-26T03:11:00.098Z,78.13
2024-03-26T03:12:00.063Z,78.03
2024-03-26T03:13:00.037Z,77.72
2024-03-26T03:14:00.040Z,76.78
2024-03-26T03:15:00.021Z,76.68
2024-03-26T03:16:00.003Z,76.68
2024-03-26T03:17:00.029Z,76.68
2024-03-26T03:18:00.079Z,76.68
2024-03-26T03:18:59.960Z,76.89
2024-03-26T03:19:59.947Z,76.78
2024-03-26T03:20:59.959Z,76.89
2024-03-26T03:22:00.023Z,76.68
2024-03-26T03:22:59.921Z,76.47
2024-03-26T03:23:59.976Z,76.57
2024-03-26T03:24:59.908Z,76.37
2024-03-26T03:25:59.911Z,75.64
2024-03-26T03:26:59.896Z,75.60
2024-03-26T03:27:59.907Z,75.29
2024-03-26T03:28:59.893Z,75.29
2024-03-26T03:29:59.864Z,75.29
2024-03-26T03:30:59.908Z,75.09
2024-03-26T03:31:59.878Z,75.09
2024-03-26T03:32:59.864Z,74.53
2024-03-26T03:33:59.842Z,74.43
2024-03-26T03:34:59.822Z,74.32
2024-03-26T03:35:59.806Z,74.22
2024-03-26T03:36:59.792Z,74.01
2024-03-26T03:37:59.869Z,74.22
2024-03-26T03:38:59.794Z,74.53
2024-03-26T03:39:59.776Z,74.63
2024-03-26T03:40:59.754Z,74.43
2024-03-26T03:41:59.742Z,74.11
2024-03-26T03:42:59.775Z,74.32
2024-03-26T03:43:59.738Z,73.91
2024-03-26T03:44:59.730Z,73.60
2024-03-26T03:45:59.770Z,73.67
2024-03-26T03:46:59.701Z,73.25
2024-03-26T03:47:59.680Z,72.84
2024-03-26T03:48:59.691Z,72.84
2024-03-26T03:49:59.663Z,72.74
2024-03-26T03:50:59.707Z,72.42
2024-03-26T03:51:59.646Z,72.60
2024-03-26T03:52:59.638Z,72.53
2024-03-26T03:53:59.660Z,72.53
2024-03-26T03:54:59.723Z,72.94
2024-03-26T03:55:59.639Z,72.84
2024-03-26T03:56:59.697Z,72.53
2024-03-26T03:57:59.624Z,72.74
2024-03-26T03:58:59.600Z,72.74
2024-03-26T03:59:59.575Z,72.94
2024-03-26T04:00:59.594Z,73.25
2024-03-26T04:01:59.590Z,73.15
2024-03-26T04:02:59.582Z,72.94
2024-03-26T04:03:59.553Z,73.15
2024-03-26T04:04:59.533Z,73.46
2024-03-26T04:05:59.515Z,73.25
2024-03-26T04:06:59.512Z,73.46
2024-03-26T04:07:59.524Z,73.39
2024-03-26T04:08:59.485Z,73.39
2024-03-26T04:09:59.482Z,73.46
2024-03-26T04:10:59.482Z,73.25
2024-03-26T04:11:59.479Z,73.05
2024-03-26T04:12:59.462Z,73.57
2024-03-26T04:13:59.459Z,73.15
2024-03-26T04:14:59.468Z,73.25
2024-03-26T04:15:59.474Z,73.57
2024-03-26T04:16:59.439Z,73.36
2024-03-26T04:17:59.430Z,73.36
2024-03-26T04:18:59.434Z,73.25
2024-03-26T04:19:59.391Z,73.15
2024-03-26T04:20:59.359Z,73.36
2024-03-26T04:21:59.342Z,73.46
2024-03-26T04:22:59.436Z,73.46
2024-03-26T04:23:59.407Z,73.57
2024-03-26T04:24:59.344Z,73.25
2024-03-26T04:25:59.320Z,73.15
2024-03-26T04:26:59.314Z,73.46
2024-03-26T04:27:59.283Z,74.01
2024-03-26T04:28:59.335Z,73.80
2024-03-26T04:29:59.350Z,73.91
2024-03-26T04:30:59.271Z,74.11
2024-03-26T04:31:59.243Z,74.43
2024-03-26T04:32:59.255Z,74.53
2024-03-26T04:33:59.270Z,74.11
2024-03-26T04:34:59.220Z,74.11
2024-03-26T04:35:59.234Z,74.32
2024-03-26T04:36:59.201Z,74.32
2024-03-26T04:37:59.205Z,74.53
2024-03-26T04:38:59.206Z,75.05
2024-03-26T04:39:59.187Z,75.26
2024-03-26T04:40:59.188Z,75.26
2024-03-26T04:41:59.185Z,75.15
2024-03-26T04:42:59.204Z,75.36
2024-03-26T04:43:59.129Z,75.36
2024-03-26T04:44:59.110Z,75.36
2024-03-26T04:45:59.113Z,75.71
2024-03-26T04:46:59.135Z,75.71
2024-03-26T04:47:59.116Z,75.81
2024-03-26T04:48:59.085Z,76.12
2024-03-26T04:49:59.076Z,76.23
2024-03-26T04:50:59.073Z,76.23
2024-03-26T04:51:59.062Z,76.33
2024-03-26T04:52:59.071Z,76.33
2024-03-26T04:53:59.024Z,76.33
2024-03-26T04:54:59.016Z,76.23
2024-03-26T04:55:59.010Z,76.33
2024-03-26T04:56:59.039Z,76.57
2024-03-26T04:57:59.032Z,76.68
2024-03-26T04:58:59.000Z,76.99
2024-03-26T04:59:59.000Z,77.09
2024-03-26T05:00:58.967Z,76.99
2024-03-26T05:01:58.952Z,76.99
2024-03-26T05:02:58.958Z,76.89
2024-03-26T05:03:58.981Z,76.99
2024-03-26T05:04:58.936Z,76.89
2024-03-26T05:05:58.927Z,76.89
2024-03-26T05:06:58.932Z,76.99
2024-03-26T05:07:58.892Z,77.09
2024-03-26T05:08:58.900Z,77.20
2024-03-26T05:09:58.900Z,77.20
2024-03-26T05:10:58.964Z,77.09
2024-03-26T05:11:58.867Z,76.99
2024-03-26T05:12:58.875Z,76.68
2024-03-26T05:13:58.841Z,76.47
2024-03-26T05:14:58.839Z,76.54
2024-03-26T05:15:58.807Z,76.54
2024-03-26T05:16:58.799Z,76.02
2024-03-26T05:17:59.051Z,75.92
2024-03-26T05:18:58.856Z,76.02
2024-03-26T05:19:58.822Z,76.12
2024-03-26T05:20:58.773Z,75.50
2024-03-26T05:21:58.767Z,75.29
2024-03-26T05:22:58.754Z,75.40
2024-03-26T05:23:58.737Z,75.19
2024-03-26T05:24:58.744Z,75.26
2024-03-26T05:25:58.753Z,75.36
2024-03-26T05:26:58.716Z,75.26
2024-03-26T05:27:58.694Z,75.05
2024-03-26T05:28:58.694Z,75.36
2024-03-26T05:29:58.685Z,75.29
2024-03-26T05:30:58.700Z,75.29
2024-03-26T05:31:58.670Z,74.95
2024-03-26T05:32:58.658Z,74.95
2024-03-26T05:33:58.640Z,74.95
2024-03-26T05:34:58.634Z,74.63
2024-03-26T05:35:58.620Z,74.63
2024-03-26T05:36:58.629Z,74.63
2024-03-26T05:37:58.593Z,74.63
2024-03-26T05:38:58.593Z,74.53
2024-03-26T05:39:58.589Z,74.63
2024-03-26T05:40:58.585Z,74.43
2024-03-26T05:41:58.566Z,74.22
2024-03-26T05:42:58.573Z,74.43
2024-03-26T05:43:58.539Z,74.40
2024-03-26T05:44:58.565Z,74.50
2024-03-26T05:45:58.507Z,73.98
2024-03-26T05:46:58.522Z,73.88
2024-03-26T05:47:58.517Z,74.29
2024-03-26T05:48:58.511Z,74.15
2024-03-26T05:49:58.489Z,73.63
2024-03-26T05:50:58.469Z,73.63
2024-03-26T05:51:58.473Z,73.22
2024-03-26T05:52:58.466Z,73.32
2024-03-26T05:53:58.459Z,73.74
2024-03-26T05:54:58.446Z,72.98
2024-03-26T05:55:58.440Z,72.46
2024-03-26T05:56:58.419Z,72.25
2024-03-26T05:57:58.412Z,72.36
2024-03-26T05:58:58.393Z,72.77
2024-03-26T05:59:58.405Z,72.25
2024-03-26T06:00:58.376Z,71.94
2024-03-26T06:01:58.375Z,71.84
2024-03-26T06:02:58.363Z,71.91
2024-03-26T06:03:59.795Z,71.70
2024-03-26T06:04:58.332Z,71.70
2024-03-26T06:05:58.468Z,71.49
2024-03-26T06:06:58.326Z,71.18
2024-03-26T06:07:58.351Z,71.28
2024-03-26T06:08:58.322Z,71.39
2024-03-26T06:09:58.294Z,71.70
2024-03-26T06:10:58.317Z,71.36
2024-03-26T06:11:58.285Z,71.04
2024-03-26T06:12:58.354Z,70.84
2024-03-26T06:13:58.264Z,70.73
2024-03-26T06:14:58.239Z,70.50
2024-03-26T06:15:58.266Z,70.18
2024-03-26T06:16:58.222Z,69.67
2024-03-26T06:17:58.225Z,69.25
2024-03-26T06:18:58.208Z,69.32
2024-03-26T06:19:58.196Z,68.91
2024-03-26T06:20:58.185Z,68.88
2024-03-26T06:21:58.257Z,68.15
2024-03-26T06:22:58.218Z,67.37
2024-03-26T06:23:58.142Z,66.54
2024-03-26T06:24:58.134Z,66.30
2024-03-26T06:25:58.152Z,66.20
2024-03-26T06:26:58.258Z,65.86
2024-03-26T06:27:58.122Z,65.11
2024-03-26T06:28:58.114Z,63.43
2024-03-26T06:29:58.102Z,62.54
2024-03-26T06:30:58.110Z,61.28
2024-03-26T06:31:58.078Z,61.41
2024-03-26T06:32:58.098Z,61.82
2024-03-26T06:33:58.066Z,61.61
2024-03-26T06:34:58.063Z,61.49
2024-03-26T06:35:58.050Z,60.61
2024-03-26T06:36:58.036Z,59.55
2024-03-26T06:37:58.059Z,58.50
2024-03-26T06:38:58.044Z,57.51
2024-03-26T06:39:58.004Z,56.26
2024-03-26T06:40:58.222Z,54.90
2024-03-26T06:41:57.970Z,54.44
2024-03-26T06:42:58.030Z,54.08
2024-03-26T06:43:58.012Z,54.08
2024-03-26T06:44:57.961Z,55.41
2024-03-26T06:45:58.046Z,53.95
2024-03-26T06:46:57.930Z,53.72
2024-03-26T06:47:57.995Z,53.31
2024-03-26T06:48:57.915Z,52.87
2024-03-26T06:49:57.922Z,53.54
2024-03-26T06:50:57.897Z,53.61
2024-03-26T06:51:57.910Z,52.75
2024-03-26T06:52:57.888Z,51.67
2024-03-26T06:53:57.888Z,50.17
2024-03-26T06:54:57.882Z,48.26
2024-03-26T06:55:57.839Z,46.67
2024-03-26T06:56:57.841Z,44.92
2024-03-26T06:57:57.814Z,44.20
2024-03-26T06:58:57.808Z,45.16
2024-03-26T06:59:57.816Z,45.12
2024-03-26T07:00:57.822Z,44.53
2024-03-26T07:01:57.776Z,44.73
2024-03-26T07:02:57.821Z,44.36
2024-03-26T07:03:57.760Z,42.29
2024-03-26T07:04:57.753Z,42.07
2024-03-26T07:05:57.844Z,41.58
2024-03-26T07:06:57.771Z,42.17
2024-03-26T07:07:57.720Z,41.64
2024-03-26T07:08:57.776Z,40.99
2024-03-26T07:09:57.719Z,40.50
2024-03-26T07:10:57.756Z,39.96
2024-03-26T07:11:57.718Z,39.23
2024-03-26T07:12:59.058Z,39.53
2024-03-26T07:13:57.673Z,39.11
2024-03-26T07:14:57.660Z,38.91
2024-03-26T07:15:57.659Z,38.70
2024-03-26T07:16:57.675Z,38.50
2024-03-26T07:17:57.637Z,38.93
2024-03-26T07:18:57.628Z,39.42
2024-03-26T07:19:57.634Z,38.77
2024-03-26T07:20:57.661Z,38.08
2024-03-26T07:21:57.580Z,38.26
2024-03-26T07:22:57.613Z,37.23
2024-03-26T07:23:57.625Z,37.45
2024-03-26T07:24:57.574Z,38.18
2024-03-26T07:25:57.536Z,37.54
2024-03-26T07:26:57.585Z,37.42
2024-03-26T07:27:57.532Z,37.23
2024-03-26T07:28:57.537Z,37.15
2024-03-26T07:29:57.534Z,37.55
2024-03-26T07:30:57.503Z,38.39
2024-03-26T07:31:57.487Z,37.77
2024-03-26T07:32:57.494Z,37.96
2024-03-26T07:33:57.490Z,37.96
2024-03-26T07:34:57.463Z,37.49
2024-03-26T07:35:57.488Z,38.50
2024-03-26T07:36:57.446Z,38.21
2024-03-26T07:37:57.439Z,38.21
2024-03-26T07:38:57.478Z,38.76
2024-03-26T07:39:57.439Z,38.82
2024-03-26T07:40:57.408Z,38.26
2024-03-26T07:41:57.432Z,37.23
2024-03-26T07:42:59.703Z,37.03
2024-03-26T07:43:57.430Z,36.83
2024-03-26T07:44:57.421Z,36.30
2024-03-26T07:45:57.347Z,36.54
2024-03-26T07:46:57.355Z,38.21
2024-03-26T07:47:57.382Z,38.64
2024-03-26T07:48:57.426Z,38.64
2024-03-26T07:49:57.383Z,39.64
2024-03-26T07:50:57.358Z,38.30
2024-03-26T07:51:57.590Z,39.49
2024-03-26T07:52:57.349Z,40.40
2024-03-26T07:53:57.319Z,39.57
2024-03-26T07:54:57.379Z,39.25
2024-03-26T07:55:57.279Z,39.01
2024-03-26T07:56:57.283Z,39.26
2024-03-26T07:57:57.265Z,40.86
2024-03-26T07:58:57.256Z,41.33
2024-03-26T07:59:57.245Z,40.08
2024-03-26T08:00:57.248Z,39.55
2024-03-26T08:01:57.210Z,38.01
2024-03-26T08:02:57.223Z,38.28
2024-03-26T08:03:57.339Z,38.21
2024-03-26T08:04:57.178Z,39.55
2024-03-26T08:05:57.236Z,40.66
2024-03-26T08:06:57.169Z,41.78
2024-03-26T08:07:57.162Z,41.96
2024-03-26T08:08:57.172Z,41.66
2024-03-26T08:09:57.147Z,40.93
2024-03-26T08:10:57.216Z,40.91
2024-03-26T08:11:57.122Z,40.08
2024-03-26T08:12:57.112Z,41.82
2024-03-26T08:13:57.120Z,43.10
2024-03-26T08:14:57.183Z,45.26
2024-03-26T08:15:57.097Z,44.51
2024-03-26T08:16:57.103Z,44.32
2024-03-26T08:17:58.204Z,44.43
2024-03-26T08:18:57.079Z,45.08
2024-03-26T08:19:57.038Z,45.69
2024-03-26T08:20:57.061Z,45.39
2024-03-26T08:21:57.055Z,46.06
2024-03-26T08:22:57.092Z,45.92
2024-03-26T08:23:57.036Z,45.89
2024-03-26T08:24:58.725Z,45.34
2024-03-26T08:25:57.004Z,43.96
2024-03-26T08:26:57.044Z,42.80
2024-03-26T08:27:56.992Z,42.05
2024-03-26T08:28:56.985Z,41.62
2024-03-26T08:29:57.065Z,40.93
2024-03-26T08:30:56.942Z,42.07
2024-03-26T08:31:56.968Z,42.47
2024-03-26T08:32:56.952Z,42.61
2024-03-26T08:33:56.988Z,43.98
2024-03-26T08:34:56.938Z,45.45
2024-03-26T08:35:56.928Z,45.16
2024-03-26T08:36:56.911Z,46.41
2024-03-26T08:37:56.885Z,47.53
2024-03-26T08:38:56.974Z,46.81
2024-03-26T08:39:56.905Z,46.71
2024-03-26T08:40:56.862Z,47.75
2024-03-26T08:41:56.872Z,47.78
2024-03-26T08:42:56.834Z,47.88
2024-03-26T08:43:56.820Z,48.59
2024-03-26T08:44:56.860Z,48.31
2024-03-26T08:45:56.835Z,49.27
2024-03-26T08:46:56.788Z,50.83
2024-03-26T08:47:56.814Z,51.62
2024-03-26T08:48:56.773Z,50.20
2024-03-26T08:49:56.783Z,50.56
2024-03-26T08:50:56.831Z,50.66
2024-03-26T08:51:56.814Z,49.21
2024-03-26T08:52:56.755Z,48.47
2024-03-26T08:53:56.816Z,48.67
2024-03-26T08:54:56.739Z,48.59
2024-03-26T08:56:00.319Z,48.18
2024-03-26T08:56:56.744Z,48.49
2024-03-26T08:57:56.723Z,48.26
2024-03-26T08:58:56.700Z,48.39
2024-03-26T08:59:56.745Z,48.57
2024-03-26T09:00:56.682Z,48.26
2024-03-26T09:01:56.698Z,47.96
2024-03-26T09:02:56.694Z,48.10
2024-03-26T09:03:56.655Z,49.51
2024-03-26T09:04:56.633Z,48.28
2024-03-26T09:05:56.658Z,49.16
2024-03-26T09:06:56.631Z,47.24
2024-03-26T09:07:56.637Z,47.73
2024-03-26T09:08:56.622Z,47.81
2024-03-26T09:09:56.589Z,47.17
2024-03-26T09:10:56.578Z,45.75
2024-03-26T09:11:56.607Z,46.85
2024-03-26T09:12:56.573Z,45.32
2024-03-26T09:13:56.576Z,44.89
2024-03-26T09:14:56.638Z,44.26
2024-03-26T09:15:56.539Z,44.46
2024-03-26T09:16:56.571Z,43.61
2024-03-26T09:17:56.516Z,42.76
2024-03-26T09:19:01.061Z,41.21
2024-03-26T09:19:56.525Z,40.65
2024-03-26T09:20:56.505Z,39.48
2024-03-26T09:21:56.501Z,38.33
2024-03-26T09:22:56.506Z,37.16
2024-03-26T09:23:56.510Z,36.64
2024-03-26T09:24:56.455Z,34.54
2024-03-26T09:25:56.472Z,35.66
2024-03-26T09:26:56.430Z,36.05
2024-03-26T09:27:56.430Z,35.43
2024-03-26T09:28:56.418Z,34.69
2024-03-26T09:29:56.503Z,34.24
2024-03-26T09:30:56.386Z,33.15
2024-03-26T09:31:56.383Z,34.27
2024-03-26T09:32:56.377Z,33.15
2024-03-26T09:33:56.364Z,33.35
2024-03-26T09:34:56.351Z,33.50
2024-03-26T09:35:56.372Z,34.45
2024-03-26T09:36:56.349Z,35.23
2024-03-26T09:37:56.342Z,34.76
2024-03-26T09:39:06.312Z,33.01
2024-03-26T09:39:56.304Z,32.36
2024-03-26T09:40:56.331Z,32.90
2024-03-26T09:41:56.303Z,32.06
2024-03-26T09:42:56.263Z,31.76
2024-03-26T09:43:56.260Z,30.94
2024-03-26T09:45:05.217Z,31.03
2024-03-26T09:45:56.271Z,31.03
2024-03-26T09:46:56.277Z,30.61
2024-03-26T09:47:56.258Z,30.41
2024-03-26T09:48:56.200Z,31.54
2024-03-26T09:49:56.206Z,32.24
2024-03-26T09:50:56.217Z,31.36
2024-03-26T09:51:56.189Z,33.44
2024-03-26T09:52:56.245Z,33.25
2024-03-26T09:53:56.193Z,34.16
2024-03-26T09:54:56.143Z,34.20
2024-03-26T09:55:56.157Z,32.50
2024-03-26T09:56:56.154Z,33.00
2024-03-26T09:57:56.158Z,33.13
2024-03-26T09:58:56.110Z,34.25
2024-03-26T09:59:56.227Z,35.10
2024-03-26T10:00:56.085Z,35.61
2024-03-26T10:01:56.124Z,35.11
2024-03-26T10:02:56.153Z,36.04
2024-03-26T10:03:56.107Z,37.28
2024-03-26T10:04:56.060Z,36.15
2024-03-26T10:05:56.066Z,36.20
2024-03-26T10:06:56.020Z,35.48
2024-03-26T10:07:56.054Z,36.32
2024-03-26T10:08:56.055Z,34.37
2024-03-26T10:09:56.010Z,35.70
2024-03-26T10:10:56.007Z,34.36
2024-03-26T10:11:55.993Z,35.63
2024-03-26T10:12:55.969Z,36.20
2024-03-26T10:13:55.969Z,34.94
2024-03-26T10:14:55.985Z,35.58
2024-03-26T10:15:55.969Z,34.34
2024-03-26T10:16:55.943Z,33.95
2024-03-26T10:17:55.925Z,32.61
2024-03-26T10:18:55.914Z,32.11
2024-03-26T10:19:55.970Z,33.33
2024-03-26T10:20:55.901Z,32.73
2024-03-26T10:21:55.894Z,33.53
2024-03-26T10:22:55.878Z,33.69
2024-03-26T10:23:55.893Z,32.18
2024-03-26T10:24:55.870Z,29.35
2024-03-26T10:25:55.887Z,30.30
2024-03-26T10:26:55.853Z,31.17
2024-03-26T10:27:55.836Z,29.25
2024-03-26T10:28:55.819Z,28.84
2024-03-26T10:29:55.835Z,28.44
2024-03-26T10:30:55.808Z,27.92
2024-03-26T10:31:55.841Z,28.22
2024-03-26T10:32:55.773Z,28.26
2024-03-26T10:33:55.785Z,28.36
2024-03-26T10:34:55.764Z,28.44
2024-03-26T10:35:55.775Z,27.52
2024-03-26T10:36:55.817Z,27.32
2024-03-26T10:37:59.006Z,27.94
2024-03-26T10:39:02.649Z,28.59
2024-03-26T10:39:55.721Z,27.50
2024-03-26T10:40:58.440Z,29.30
2024-03-26T10:41:55.713Z,29.38
2024-03-26T10:42:55.711Z,27.20
2024-03-26T10:43:55.675Z,29.08
2024-03-26T10:44:55.696Z,30.02
2024-03-26T10:46:03.392Z,30.81
2024-03-26T10:46:55.668Z,30.69
2024-03-26T10:47:55.680Z,30.28
2024-03-26T10:49:01.293Z,29.06
2024-03-26T10:49:55.669Z,29.16
2024-03-26T10:50:55.607Z,29.34
2024-03-26T10:51:55.669Z,28.81
2024-03-26T10:52:55.605Z,29.72
2024-03-26T10:53:55.614Z,28.85
2024-03-26T10:54:55.635Z,29.55
2024-03-26T10:55:55.576Z,29.12
2024-03-26T10:56:55.591Z,29.12
2024-03-26T10:57:55.611Z,29.68
2024-03-26T10:58:55.535Z,30.81
2024-03-26T10:59:55.606Z,31.41
2024-03-26T11:00:55.529Z,30.71
2024-03-26T11:01:55.509Z,31.65
2024-03-26T11:02:55.507Z,31.96
2024-03-26T11:03:55.530Z,32.26
2024-03-26T11:04:55.545Z,32.87
2024-03-26T11:05:55.506Z,32.55
2024-03-26T11:06:55.455Z,32.55
2024-03-26T11:07:55.448Z,31.85
2024-03-26T11:08:55.435Z,31.65
2024-03-26T11:09:55.434Z,31.83
2024-03-26T11:10:56.085Z,32.52
2024-03-26T11:11:55.488Z,32.60
2024-03-26T11:12:55.398Z,32.29
2024-03-26T11:13:55.394Z,32.60
2024-03-26T11:14:55.391Z,32.69
2024-03-26T11:15:55.438Z,31.18
2024-03-26T11:16:55.384Z,31.18
2024-03-26T11:17:55.383Z,30.98
2024-03-26T11:18:55.340Z,31.38
2024-03-26T11:19:55.348Z,31.37
2024-03-26T11:20:55.352Z,31.27
2024-03-26T11:21:55.398Z,31.20
2024-03-26T11:22:55.321Z,32.75
2024-03-26T11:23:55.300Z,33.69
2024-03-26T11:24:55.288Z,33.69
2024-03-26T11:25:55.318Z,33.59
2024-03-26T11:26:55.286Z,34.02
2024-03-26T11:27:55.265Z,34.44
2024-03-26T11:28:55.251Z,34.94
2024-03-26T11:29:55.263Z,35.48
2024-03-26T11:30:55.228Z,36.17
2024-03-26T11:31:55.256Z,35.66
2024-03-26T11:32:55.220Z,34.84
2024-03-26T11:33:55.238Z,34.24
2024-03-26T11:34:55.273Z,34.42
2024-03-26T11:35:55.195Z,34.04
2024-03-26T11:36:55.190Z,34.22
2024-03-26T11:37:55.193Z,35.45
2024-03-26T11:38:55.186Z,34.12
2024-03-26T11:39:55.165Z,33.07
2024-03-26T11:40:55.138Z,32.03
2024-03-26T11:41:55.133Z,31.38
2024-03-26T11:42:55.147Z,30.26
2024-03-26T11:43:55.122Z,29.48
2024-03-26T11:44:55.101Z,31.09
2024-03-26T11:45:55.090Z,30.68
2024-03-26T11:46:55.115Z,29.35
2024-03-26T11:47:55.072Z,30.05
2024-03-26T11:48:55.087Z,29.14
2024-03-26T11:49:55.058Z,28.61
2024-03-26T11:50:55.047Z,29.39
2024-03-26T11:51:55.043Z,28.28
2024-03-26T11:52:55.031Z,28.48
2024-03-26T11:53:55.025Z,27.26
2024-03-26T11:54:55.039Z,26.84
2024-03-26T11:55:55.006Z,26.79
2024-03-26T11:56:54.992Z,27.59
2024-03-26T11:57:54.982Z,27.19
2024-03-26T11:58:54.976Z,26.28
2024-03-26T11:59:54.985Z,26.50
2024-03-26T12:00:54.948Z,25.96
2024-03-26T12:01:54.949Z,25.85
2024-03-26T12:02:54.974Z,26.07
2024-03-26T12:03:54.926Z,26.32
2024-03-26T12:04:54.951Z,27.32
2024-03-26T12:05:54.947Z,26.61
2024-03-26T12:06:54.927Z,26.15
2024-03-26T12:07:54.898Z,26.64
2024-03-26T12:08:54.874Z,26.02
2024-03-26T12:09:54.882Z,25.91
2024-03-26T12:10:54.996Z,25.40
2024-03-26T12:11:54.860Z,24.49
2024-03-26T12:12:54.866Z,24.80
2024-03-26T12:13:54.843Z,25.91
2024-03-26T12:14:54.827Z,26.09
2024-03-26T12:15:54.891Z,25.11
2024-03-26T12:16:54.802Z,25.22
2024-03-26T12:17:54.799Z,25.62
2024-03-26T12:18:54.783Z,27.08
2024-03-26T12:19:54.775Z,26.56
2024-03-26T12:20:54.766Z,26.57
2024-03-26T12:21:54.791Z,26.46
2024-03-26T12:22:54.744Z,26.67
2024-03-26T12:23:54.756Z,27.00
2024-03-26T12:24:54.720Z,27.27
2024-03-26T12:25:54.746Z,26.25
2024-03-26T12:26:54.730Z,26.51
2024-03-26T12:27:54.718Z,25.37
2024-03-26T12:28:54.693Z,23.79
2024-03-26T12:29:54.673Z,23.58
2024-03-26T12:30:54.690Z,23.87
2024-03-26T12:31:54.687Z,23.66
2024-03-26T12:32:54.642Z,23.25
2024-03-26T12:33:54.666Z,23.46
2024-03-26T12:34:54.632Z,24.01
2024-03-26T12:35:54.624Z,24.91
2024-03-26T12:36:54.643Z,24.49
2024-03-26T12:37:54.626Z,24.98
2024-03-26T12:38:55.408Z,24.15
2024-03-26T12:39:54.581Z,23.14
2024-03-26T12:40:54.574Z,22.44
2024-03-26T12:41:54.579Z,23.00
2024-03-26T12:42:54.592Z,22.60
2024-03-26T12:43:54.568Z,21.99
2024-03-26T12:44:54.537Z,22.28
2024-03-26T12:45:54.526Z,22.11
2024-03-26T12:46:54.521Z,23.15
2024-03-26T12:47:54.552Z,22.97
2024-03-26T12:48:54.497Z,23.92
2024-03-26T12:49:54.499Z,25.68
2024-03-26T12:50:54.503Z,26.34
2024-03-26T12:51:54.482Z,26.81
2024-03-26T12:52:54.477Z,24.38
2024-03-26T12:53:54.482Z,24.32
2024-03-26T12:54:54.444Z,24.72
2024-03-26T12:55:54.435Z,24.11
2024-03-26T12:56:54.446Z,24.29
2024-03-26T12:57:54.426Z,23.57
2024-03-26T12:58:54.532Z,23.76
2024-03-26T12:59:54.396Z,23.28
2024-03-26T13:00:54.373Z,23.68
2024-03-26T13:01:54.572Z,23.07
2024-03-26T13:02:54.451Z,24.48